sensor_id;sensor_type;location;lat;lon;timestamp;P1;durP1;ratioP1;P2;durP2;ratioP2
26822;SDS011;14852;51.910;8.878;2023-02-11T00:00:32;37.03;;;24.15;;
26822;SDS011;14852;51.910;8.878;2023-02-11T00:02:58;41.72;;;25.13;;
26822;SDS011;14852;51.910;8.878;2023-02-11T00:05:24;36.38;;;24.15;;
26822;SDS011;14852;51.910;8.878;2023-02-11T00:07:50;36.72;;;24.00;;
26822;SDS011;14852;51.910;8.878;2023-02-11T00:10:15;41.00;;;24.38;;
26822;SDS011;14852;51.910;8.878;2023-02-11T00:12:41;35.13;;;25.17;;
26822;SDS011;14852;51.910;8.878;2023-02-11T00:15:07;42.88;;;25.60;;
26822;SDS011;14852;51.910;8.878;2023-02-11T00:17:34;34.97;;;23.05;;
26822;SDS011;14852;51.910;8.878;2023-02-11T00:20:00;44.17;;;28.50;;
26822;SDS011;14852;51.910;8.878;2023-02-11T00:22:26;38.35;;;26.55;;
26822;SDS011;14852;51.910;8.878;2023-02-11T00:24:52;40.88;;;26.10;;
26822;SDS011;14852;51.910;8.878;2023-02-11T00:27:18;33.83;;;24.08;;
26822;SDS011;14852;51.910;8.878;2023-02-11T00:29:44;40.67;;;26.25;;
26822;SDS011;14852;51.910;8.878;2023-02-11T00:32:09;43.50;;;26.60;;
26822;SDS011;14852;51.910;8.878;2023-02-11T00:34:35;36.28;;;24.92;;
26822;SDS011;14852;51.910;8.878;2023-02-11T00:37:02;38.75;;;25.15;;
26822;SDS011;14852;51.910;8.878;2023-02-11T00:39:28;34.88;;;23.08;;
26822;SDS011;14852;51.910;8.878;2023-02-11T00:41:54;41.42;;;25.42;;
26822;SDS011;14852;51.910;8.878;2023-02-11T00:44:20;38.08;;;24.88;;
26822;SDS011;14852;51.910;8.878;2023-02-11T00:46:46;39.22;;;24.98;;
26822;SDS011;14852;51.910;8.878;2023-02-11T00:49:12;32.13;;;22.88;;
26822;SDS011;14852;51.910;8.878;2023-02-11T00:51:39;35.15;;;25.00;;
26822;SDS011;14852;51.910;8.878;2023-02-11T00:54:05;42.95;;;26.42;;
26822;SDS011;14852;51.910;8.878;2023-02-11T00:56:31;37.70;;;25.27;;
26822;SDS011;14852;51.910;8.878;2023-02-11T00:58:57;35.25;;;23.58;;
26822;SDS011;14852;51.910;8.878;2023-02-11T01:01:23;36.58;;;25.90;;
26822;SDS011;14852;51.910;8.878;2023-02-11T01:03:49;36.03;;;25.92;;
26822;SDS011;14852;51.910;8.878;2023-02-11T01:06:15;40.58;;;26.27;;
26822;SDS011;14852;51.910;8.878;2023-02-11T01:08:41;36.33;;;26.52;;
26822;SDS011;14852;51.910;8.878;2023-02-11T01:11:11;32.95;;;23.17;;
26822;SDS011;14852;51.910;8.878;2023-02-11T01:13:44;34.58;;;23.58;;
26822;SDS011;14852;51.910;8.878;2023-02-11T01:16:11;34.80;;;23.42;;
26822;SDS011;14852;51.910;8.878;2023-02-11T01:18:38;35.53;;;22.40;;
26822;SDS011;14852;51.910;8.878;2023-02-11T01:21:05;50.55;;;28.02;;
26822;SDS011;14852;51.910;8.878;2023-02-11T01:23:31;36.72;;;25.65;;
26822;SDS011;14852;51.910;8.878;2023-02-11T01:25:57;40.03;;;27.17;;
26822;SDS011;14852;51.910;8.878;2023-02-11T01:28:24;37.13;;;25.08;;
26822;SDS011;14852;51.910;8.878;2023-02-11T01:30:52;40.05;;;26.52;;
26822;SDS011;14852;51.910;8.878;2023-02-11T01:33:18;38.38;;;27.52;;
26822;SDS011;14852;51.910;8.878;2023-02-11T01:35:45;34.95;;;25.02;;
26822;SDS011;14852;51.910;8.878;2023-02-11T01:38:15;42.15;;;26.23;;
26822;SDS011;14852;51.910;8.878;2023-02-11T01:40:48;36.85;;;24.13;;
26822;SDS011;14852;51.910;8.878;2023-02-11T01:43:30;39.33;;;25.27;;
26822;SDS011;14852;51.910;8.878;2023-02-11T01:49:04;31.33;;;22.38;;
26822;SDS011;14852;51.910;8.878;2023-02-11T01:51:41;28.90;;;20.10;;
26822;SDS011;14852;51.910;8.878;2023-02-11T01:54:25;30.13;;;22.48;;
26822;SDS011;14852;51.910;8.878;2023-02-11T01:57:19;28.05;;;21.25;;
26822;SDS011;14852;51.910;8.878;2023-02-11T02:08:39;29.35;;;21.58;;
26822;SDS011;14852;51.910;8.878;2023-02-11T02:11:14;33.23;;;23.47;;
26822;SDS011;14852;51.910;8.878;2023-02-11T02:13:40;28.50;;;20.42;;
26822;SDS011;14852;51.910;8.878;2023-02-11T02:16:12;29.10;;;21.88;;
26822;SDS011;14852;51.910;8.878;2023-02-11T02:27:33;36.00;;;24.60;;
26822;SDS011;14852;51.910;8.878;2023-02-11T02:36:42;31.25;;;21.40;;
26822;SDS011;14852;51.910;8.878;2023-02-11T02:39:19;30.38;;;21.60;;
26822;SDS011;14852;51.910;8.878;2023-02-11T02:41:52;30.95;;;22.35;;
26822;SDS011;14852;51.910;8.878;2023-02-11T02:44:19;33.25;;;21.70;;
26822;SDS011;14852;51.910;8.878;2023-02-11T02:46:45;30.42;;;21.33;;
26822;SDS011;14852;51.910;8.878;2023-02-11T02:49:11;30.63;;;22.50;;
26822;SDS011;14852;51.910;8.878;2023-02-11T03:00:55;26.48;;;19.77;;
26822;SDS011;14852;51.910;8.878;2023-02-11T03:03:54;28.67;;;21.48;;
26822;SDS011;14852;51.910;8.878;2023-02-11T03:06:33;31.27;;;20.48;;
26822;SDS011;14852;51.910;8.878;2023-02-11T03:12:01;26.80;;;20.17;;
26822;SDS011;14852;51.910;8.878;2023-02-11T03:14:28;25.55;;;18.45;;
26822;SDS011;14852;51.910;8.878;2023-02-11T03:16:56;27.00;;;18.48;;
26822;SDS011;14852;51.910;8.878;2023-02-11T03:19:26;25.92;;;19.83;;
26822;SDS011;14852;51.910;8.878;2023-02-11T03:21:58;27.35;;;21.25;;
26822;SDS011;14852;51.910;8.878;2023-02-11T03:24:28;28.92;;;21.95;;
26822;SDS011;14852;51.910;8.878;2023-02-11T03:27:09;28.45;;;21.13;;
26822;SDS011;14852;51.910;8.878;2023-02-11T03:33:33;33.72;;;21.85;;
26822;SDS011;14852;51.910;8.878;2023-02-11T03:35:53;28.13;;;20.77;;
26822;SDS011;14852;51.910;8.878;2023-02-11T03:38:26;25.52;;;19.35;;
26822;SDS011;14852;51.910;8.878;2023-02-11T03:40:58;28.30;;;20.55;;
26822;SDS011;14852;51.910;8.878;2023-02-11T03:43:30;26.50;;;19.35;;
26822;SDS011;14852;51.910;8.878;2023-02-11T03:46:04;27.25;;;20.25;;
26822;SDS011;14852;51.910;8.878;2023-02-11T03:48:32;23.20;;;17.88;;
26822;SDS011;14852;51.910;8.878;2023-02-11T03:51:04;28.95;;;19.80;;
26822;SDS011;14852;51.910;8.878;2023-02-11T03:53:33;22.95;;;18.58;;
26822;SDS011;14852;51.910;8.878;2023-02-11T03:56:02;26.58;;;18.85;;
26822;SDS011;14852;51.910;8.878;2023-02-11T03:58:32;23.60;;;19.10;;
26822;SDS011;14852;51.910;8.878;2023-02-11T04:00:58;24.55;;;18.42;;
26822;SDS011;14852;51.910;8.878;2023-02-11T04:03:26;25.85;;;20.92;;
26822;SDS011;14852;51.910;8.878;2023-02-11T04:05:52;24.23;;;18.77;;
26822;SDS011;14852;51.910;8.878;2023-02-11T04:08:18;27.00;;;20.23;;
26822;SDS011;14852;51.910;8.878;2023-02-11T04:10:44;23.92;;;18.90;;
26822;SDS011;14852;51.910;8.878;2023-02-11T04:13:10;26.95;;;20.20;;
26822;SDS011;14852;51.910;8.878;2023-02-11T04:15:36;26.05;;;19.83;;
26822;SDS011;14852;51.910;8.878;2023-02-11T04:18:01;27.33;;;20.23;;
26822;SDS011;14852;51.910;8.878;2023-02-11T04:20:28;30.27;;;21.10;;
26822;SDS011;14852;51.910;8.878;2023-02-11T04:22:54;29.70;;;21.38;;
26822;SDS011;14852;51.910;8.878;2023-02-11T04:25:20;28.52;;;21.70;;
26822;SDS011;14852;51.910;8.878;2023-02-11T04:27:45;31.77;;;22.98;;
26822;SDS011;14852;51.910;8.878;2023-02-11T04:30:11;35.05;;;22.70;;
26822;SDS011;14852;51.910;8.878;2023-02-11T04:32:37;36.70;;;25.13;;
26822;SDS011;14852;51.910;8.878;2023-02-11T04:35:04;33.13;;;25.77;;
26822;SDS011;14852;51.910;8.878;2023-02-11T04:37:30;36.15;;;25.08;;
26822;SDS011;14852;51.910;8.878;2023-02-11T04:39:56;36.53;;;25.05;;
26822;SDS011;14852;51.910;8.878;2023-02-11T04:42:22;39.42;;;28.42;;
26822;SDS011;14852;51.910;8.878;2023-02-11T04:44:48;40.58;;;26.52;;
26822;SDS011;14852;51.910;8.878;2023-02-11T04:47:14;46.47;;;29.58;;
26822;SDS011;14852;51.910;8.878;2023-02-11T04:49:40;37.47;;;28.60;;
26822;SDS011;14852;51.910;8.878;2023-02-11T04:52:06;40.40;;;28.13;;
26822;SDS011;14852;51.910;8.878;2023-02-11T04:54:32;39.60;;;26.33;;
26822;SDS011;14852;51.910;8.878;2023-02-11T04:56:58;42.03;;;29.45;;
26822;SDS011;14852;51.910;8.878;2023-02-11T04:59:24;36.40;;;25.85;;
26822;SDS011;14852;51.910;8.878;2023-02-11T05:01:49;40.25;;;28.55;;
26822;SDS011;14852;51.910;8.878;2023-02-11T05:04:15;38.00;;;27.73;;
26822;SDS011;14852;51.910;8.878;2023-02-11T05:06:41;43.08;;;28.10;;
26822;SDS011;14852;51.910;8.878;2023-02-11T05:09:09;43.53;;;26.90;;
26822;SDS011;14852;51.910;8.878;2023-02-11T05:11:37;40.60;;;30.55;;
26822;SDS011;14852;51.910;8.878;2023-02-11T05:14:04;33.58;;;24.85;;
26822;SDS011;14852;51.910;8.878;2023-02-11T05:16:30;39.35;;;27.75;;
26822;SDS011;14852;51.910;8.878;2023-02-11T05:18:57;40.63;;;28.45;;
26822;SDS011;14852;51.910;8.878;2023-02-11T05:21:23;43.97;;;29.58;;
26822;SDS011;14852;51.910;8.878;2023-02-11T05:23:48;44.55;;;31.25;;
26822;SDS011;14852;51.910;8.878;2023-02-11T05:26:14;44.45;;;31.80;;
26822;SDS011;14852;51.910;8.878;2023-02-11T05:28:41;41.75;;;29.92;;
26822;SDS011;14852;51.910;8.878;2023-02-11T05:31:08;41.20;;;29.48;;
26822;SDS011;14852;51.910;8.878;2023-02-11T05:33:34;40.85;;;31.17;;
26822;SDS011;14852;51.910;8.878;2023-02-11T05:36:01;40.58;;;27.98;;
26822;SDS011;14852;51.910;8.878;2023-02-11T05:38:29;38.33;;;28.27;;
26822;SDS011;14852;51.910;8.878;2023-02-11T05:40:55;38.58;;;28.77;;
26822;SDS011;14852;51.910;8.878;2023-02-11T05:43:21;41.38;;;27.80;;
26822;SDS011;14852;51.910;8.878;2023-02-11T05:45:47;40.47;;;29.27;;
26822;SDS011;14852;51.910;8.878;2023-02-11T05:48:13;43.53;;;30.27;;
26822;SDS011;14852;51.910;8.878;2023-02-11T05:50:38;43.97;;;30.25;;
26822;SDS011;14852;51.910;8.878;2023-02-11T05:53:04;42.75;;;29.35;;
26822;SDS011;14852;51.910;8.878;2023-02-11T05:55:31;40.47;;;29.48;;
26822;SDS011;14852;51.910;8.878;2023-02-11T05:57:56;43.47;;;29.85;;
26822;SDS011;14852;51.910;8.878;2023-02-11T06:00:22;44.60;;;30.35;;
26822;SDS011;14852;51.910;8.878;2023-02-11T06:02:48;44.05;;;29.33;;
26822;SDS011;14852;51.910;8.878;2023-02-11T06:05:14;44.55;;;29.80;;
26822;SDS011;14852;51.910;8.878;2023-02-11T06:07:40;41.53;;;27.38;;
26822;SDS011;14852;51.910;8.878;2023-02-11T06:10:05;44.15;;;31.02;;
26822;SDS011;14852;51.910;8.878;2023-02-11T06:12:32;46.80;;;30.23;;
26822;SDS011;14852;51.910;8.878;2023-02-11T06:14:58;40.97;;;26.70;;
26822;SDS011;14852;51.910;8.878;2023-02-11T06:17:23;42.05;;;28.88;;
26822;SDS011;14852;51.910;8.878;2023-02-11T06:19:49;47.72;;;31.45;;
26822;SDS011;14852;51.910;8.878;2023-02-11T06:22:15;46.55;;;30.05;;
26822;SDS011;14852;51.910;8.878;2023-02-11T06:24:41;50.42;;;31.13;;
26822;SDS011;14852;51.910;8.878;2023-02-11T06:27:07;37.13;;;27.58;;
26822;SDS011;14852;51.910;8.878;2023-02-11T06:29:33;42.88;;;28.77;;
26822;SDS011;14852;51.910;8.878;2023-02-11T06:31:58;45.25;;;30.92;;
26822;SDS011;14852;51.910;8.878;2023-02-11T06:34:24;47.42;;;31.67;;
26822;SDS011;14852;51.910;8.878;2023-02-11T06:36:50;45.47;;;28.50;;
26822;SDS011;14852;51.910;8.878;2023-02-11T06:39:16;40.15;;;28.20;;
26822;SDS011;14852;51.910;8.878;2023-02-11T06:41:41;44.97;;;30.58;;
26822;SDS011;14852;51.910;8.878;2023-02-11T06:44:07;41.42;;;30.40;;
26822;SDS011;14852;51.910;8.878;2023-02-11T06:46:33;43.42;;;27.70;;
26822;SDS011;14852;51.910;8.878;2023-02-11T06:48:59;41.45;;;30.13;;
26822;SDS011;14852;51.910;8.878;2023-02-11T06:51:24;49.88;;;30.17;;
26822;SDS011;14852;51.910;8.878;2023-02-11T06:53:50;44.10;;;31.08;;
26822;SDS011;14852;51.910;8.878;2023-02-11T06:56:17;41.10;;;26.60;;
26822;SDS011;14852;51.910;8.878;2023-02-11T06:58:46;53.90;;;34.63;;
26822;SDS011;14852;51.910;8.878;2023-02-11T07:01:14;47.97;;;29.90;;
26822;SDS011;14852;51.910;8.878;2023-02-11T07:03:41;42.90;;;29.98;;
26822;SDS011;14852;51.910;8.878;2023-02-11T07:06:10;48.35;;;30.80;;
26822;SDS011;14852;51.910;8.878;2023-02-11T07:08:39;49.13;;;30.30;;
26822;SDS011;14852;51.910;8.878;2023-02-11T07:11:20;47.97;;;32.50;;
26822;SDS011;14852;51.910;8.878;2023-02-11T07:13:50;48.55;;;31.40;;
26822;SDS011;14852;51.910;8.878;2023-02-11T07:16:18;47.65;;;32.40;;
26822;SDS011;14852;51.910;8.878;2023-02-11T07:18:45;52.20;;;33.80;;
26822;SDS011;14852;51.910;8.878;2023-02-11T07:21:16;50.65;;;32.15;;
26822;SDS011;14852;51.910;8.878;2023-02-11T07:23:44;50.22;;;33.38;;
26822;SDS011;14852;51.910;8.878;2023-02-11T07:26:11;50.10;;;31.17;;
26822;SDS011;14852;51.910;8.878;2023-02-11T07:28:40;48.45;;;33.65;;
26822;SDS011;14852;51.910;8.878;2023-02-11T07:33:36;49.03;;;34.25;;
26822;SDS011;14852;51.910;8.878;2023-02-11T07:36:02;53.75;;;33.10;;
26822;SDS011;14852;51.910;8.878;2023-02-11T07:38:30;45.58;;;30.40;;
26822;SDS011;14852;51.910;8.878;2023-02-11T07:41:05;44.13;;;30.17;;
26822;SDS011;14852;51.910;8.878;2023-02-11T07:43:34;45.90;;;31.00;;
26822;SDS011;14852;51.910;8.878;2023-02-11T07:46:04;47.35;;;31.20;;
26822;SDS011;14852;51.910;8.878;2023-02-11T07:48:38;46.55;;;32.25;;
26822;SDS011;14852;51.910;8.878;2023-02-11T07:51:06;49.85;;;32.42;;
26822;SDS011;14852;51.910;8.878;2023-02-11T07:53:44;51.42;;;31.15;;
26822;SDS011;14852;51.910;8.878;2023-02-11T07:56:11;44.58;;;31.17;;
26822;SDS011;14852;51.910;8.878;2023-02-11T07:58:41;49.50;;;32.85;;
26822;SDS011;14852;51.910;8.878;2023-02-11T08:01:12;45.42;;;30.05;;
26822;SDS011;14852;51.910;8.878;2023-02-11T08:03:49;49.10;;;31.02;;
26822;SDS011;14852;51.910;8.878;2023-02-11T08:06:16;49.15;;;32.70;;
26822;SDS011;14852;51.910;8.878;2023-02-11T08:08:44;45.97;;;30.42;;
26822;SDS011;14852;51.910;8.878;2023-02-11T08:11:11;46.20;;;28.65;;
26822;SDS011;14852;51.910;8.878;2023-02-11T08:13:42;43.13;;;28.17;;
26822;SDS011;14852;51.910;8.878;2023-02-11T08:16:08;47.72;;;28.45;;
26822;SDS011;14852;51.910;8.878;2023-02-11T08:18:47;48.67;;;30.50;;
26822;SDS011;14852;51.910;8.878;2023-02-11T08:21:14;46.28;;;29.90;;
26822;SDS011;14852;51.910;8.878;2023-02-11T08:23:41;46.97;;;30.80;;
26822;SDS011;14852;51.910;8.878;2023-02-11T08:26:09;45.67;;;30.70;;
26822;SDS011;14852;51.910;8.878;2023-02-11T08:28:39;50.10;;;29.40;;
26822;SDS011;14852;51.910;8.878;2023-02-11T08:31:15;45.30;;;30.05;;
26822;SDS011;14852;51.910;8.878;2023-02-11T08:33:49;50.22;;;29.75;;
26822;SDS011;14852;51.910;8.878;2023-02-11T08:36:16;42.10;;;28.52;;
26822;SDS011;14852;51.910;8.878;2023-02-11T08:38:49;45.65;;;29.63;;
26822;SDS011;14852;51.910;8.878;2023-02-11T08:41:15;50.55;;;29.17;;
26822;SDS011;14852;51.910;8.878;2023-02-11T08:43:42;48.00;;;28.27;;
26822;SDS011;14852;51.910;8.878;2023-02-11T08:46:13;49.85;;;32.33;;
26822;SDS011;14852;51.910;8.878;2023-02-11T08:48:42;44.95;;;29.10;;
26822;SDS011;14852;51.910;8.878;2023-02-11T08:51:10;54.75;;;33.40;;
26822;SDS011;14852;51.910;8.878;2023-02-11T08:53:41;44.97;;;31.00;;
26822;SDS011;14852;51.910;8.878;2023-02-11T08:56:07;48.28;;;32.35;;
26822;SDS011;14852;51.910;8.878;2023-02-11T08:58:35;54.90;;;32.72;;
26822;SDS011;14852;51.910;8.878;2023-02-11T09:01:01;47.75;;;29.98;;
26822;SDS011;14852;51.910;8.878;2023-02-11T09:03:37;47.20;;;31.13;;
26822;SDS011;14852;51.910;8.878;2023-02-11T09:06:07;50.25;;;31.52;;
26822;SDS011;14852;51.910;8.878;2023-02-11T09:08:35;51.25;;;32.75;;
26822;SDS011;14852;51.910;8.878;2023-02-11T09:11:03;52.00;;;31.60;;
26822;SDS011;14852;51.910;8.878;2023-02-11T09:13:30;50.35;;;32.00;;
26822;SDS011;14852;51.910;8.878;2023-02-11T09:15:57;51.80;;;31.88;;
26822;SDS011;14852;51.910;8.878;2023-02-11T09:18:24;48.55;;;29.50;;
26822;SDS011;14852;51.910;8.878;2023-02-11T09:20:50;48.88;;;30.65;;
26822;SDS011;14852;51.910;8.878;2023-02-11T09:23:16;53.35;;;31.73;;
26822;SDS011;14852;51.910;8.878;2023-02-11T09:25:44;44.75;;;28.88;;
26822;SDS011;14852;51.910;8.878;2023-02-11T09:28:10;43.55;;;27.75;;
26822;SDS011;14852;51.910;8.878;2023-02-11T09:30:36;45.40;;;28.60;;
26822;SDS011;14852;51.910;8.878;2023-02-11T09:33:02;51.22;;;31.88;;
26822;SDS011;14852;51.910;8.878;2023-02-11T09:35:28;53.05;;;29.38;;
26822;SDS011;14852;51.910;8.878;2023-02-11T09:37:54;49.88;;;30.23;;
26822;SDS011;14852;51.910;8.878;2023-02-11T09:40:20;47.15;;;31.88;;
26822;SDS011;14852;51.910;8.878;2023-02-11T09:42:47;51.58;;;32.83;;
26822;SDS011;14852;51.910;8.878;2023-02-11T09:45:19;54.50;;;30.95;;
26822;SDS011;14852;51.910;8.878;2023-02-11T09:47:52;52.50;;;30.33;;
26822;SDS011;14852;51.910;8.878;2023-02-11T09:55:57;52.20;;;32.20;;
26822;SDS011;14852;51.910;8.878;2023-02-11T09:58:27;49.97;;;28.60;;
26822;SDS011;14852;51.910;8.878;2023-02-11T10:06:49;54.20;;;28.50;;
26822;SDS011;14852;51.910;8.878;2023-02-11T10:09:27;46.50;;;28.45;;
26822;SDS011;14852;51.910;8.878;2023-02-11T10:23:24;52.50;;;30.80;;
26822;SDS011;14852;51.910;8.878;2023-02-11T10:25:55;52.15;;;31.17;;
26822;SDS011;14852;51.910;8.878;2023-02-11T10:28:23;50.67;;;31.75;;
26822;SDS011;14852;51.910;8.878;2023-02-11T10:31:01;64.28;;;32.53;;
26822;SDS011;14852;51.910;8.878;2023-02-11T10:36:15;45.63;;;28.50;;
26822;SDS011;14852;51.910;8.878;2023-02-11T10:38:43;41.40;;;26.80;;
26822;SDS011;14852;51.910;8.878;2023-02-11T10:41:09;43.88;;;28.98;;
26822;SDS011;14852;51.910;8.878;2023-02-11T10:43:41;44.55;;;28.60;;
26822;SDS011;14852;51.910;8.878;2023-02-11T10:46:15;44.75;;;25.08;;
26822;SDS011;14852;51.910;8.878;2023-02-11T10:48:47;39.38;;;25.40;;
26822;SDS011;14852;51.910;8.878;2023-02-11T10:53:45;36.97;;;24.30;;
26822;SDS011;14852;51.910;8.878;2023-02-11T10:56:47;39.80;;;24.02;;
26822;SDS011;14852;51.910;8.878;2023-02-11T10:59:36;37.25;;;24.00;;
26822;SDS011;14852;51.910;8.878;2023-02-11T11:04:58;30.23;;;21.58;;
26822;SDS011;14852;51.910;8.878;2023-02-11T11:07:38;40.17;;;25.67;;
26822;SDS011;14852;51.910;8.878;2023-02-11T11:13:27;38.97;;;24.17;;
26822;SDS011;14852;51.910;8.878;2023-02-11T11:16:06;29.85;;;22.00;;
26822;SDS011;14852;51.910;8.878;2023-02-11T11:18:38;36.85;;;23.52;;
26822;SDS011;14852;51.910;8.878;2023-02-11T11:21:18;31.65;;;21.20;;
26822;SDS011;14852;51.910;8.878;2023-02-11T11:23:51;35.58;;;24.00;;
26822;SDS011;14852;51.910;8.878;2023-02-11T11:26:24;31.85;;;21.33;;
26822;SDS011;14852;51.910;8.878;2023-02-11T11:29:15;33.08;;;22.90;;
26822;SDS011;14852;51.910;8.878;2023-02-11T11:31:50;39.03;;;26.00;;
26822;SDS011;14852;51.910;8.878;2023-02-11T11:34:30;35.58;;;23.88;;
26822;SDS011;14852;51.910;8.878;2023-02-11T11:37:09;34.20;;;22.77;;
26822;SDS011;14852;51.910;8.878;2023-02-11T11:39:55;33.47;;;22.67;;
26822;SDS011;14852;51.910;8.878;2023-02-11T11:42:46;34.35;;;23.10;;
26822;SDS011;14852;51.910;8.878;2023-02-11T11:45:53;40.97;;;24.00;;
26822;SDS011;14852;51.910;8.878;2023-02-11T11:48:25;39.58;;;26.17;;
26822;SDS011;14852;51.910;8.878;2023-02-11T11:50:59;33.83;;;22.23;;
26822;SDS011;14852;51.910;8.878;2023-02-11T11:53:35;29.83;;;20.83;;
26822;SDS011;14852;51.910;8.878;2023-02-11T11:56:21;41.25;;;24.70;;
26822;SDS011;14852;51.910;8.878;2023-02-11T11:58:51;36.88;;;25.60;;
26822;SDS011;14852;51.910;8.878;2023-02-11T12:04:09;36.15;;;22.00;;
26822;SDS011;14852;51.910;8.878;2023-02-11T12:07:04;35.03;;;24.80;;
26822;SDS011;14852;51.910;8.878;2023-02-11T12:10:19;35.22;;;24.38;;
26822;SDS011;14852;51.910;8.878;2023-02-11T12:13:17;41.53;;;25.75;;
26822;SDS011;14852;51.910;8.878;2023-02-11T12:16:18;41.78;;;25.83;;
26822;SDS011;14852;51.910;8.878;2023-02-11T12:19:16;39.50;;;26.45;;
26822;SDS011;14852;51.910;8.878;2023-02-11T12:21:54;39.08;;;25.63;;
26822;SDS011;14852;51.910;8.878;2023-02-11T12:24:58;43.05;;;26.30;;
26822;SDS011;14852;51.910;8.878;2023-02-11T12:28:00;39.28;;;24.73;;
26822;SDS011;14852;51.910;8.878;2023-02-11T12:37:02;39.80;;;26.98;;
26822;SDS011;14852;51.910;8.878;2023-02-11T12:39:43;41.83;;;26.23;;
26822;SDS011;14852;51.910;8.878;2023-02-11T12:42:49;43.13;;;28.10;;
26822;SDS011;14852;51.910;8.878;2023-02-11T12:45:58;37.90;;;24.77;;
26822;SDS011;14852;51.910;8.878;2023-02-11T12:51:34;49.13;;;30.30;;
26822;SDS011;14852;51.910;8.878;2023-02-11T12:56:51;39.72;;;27.77;;
26822;SDS011;14852;51.910;8.878;2023-02-11T13:05:22;42.33;;;26.65;;
26822;SDS011;14852;51.910;8.878;2023-02-11T13:08:07;41.40;;;26.65;;
26822;SDS011;14852;51.910;8.878;2023-02-11T13:10:40;47.22;;;29.70;;
26822;SDS011;14852;51.910;8.878;2023-02-11T13:13:24;40.83;;;27.08;;
26822;SDS011;14852;51.910;8.878;2023-02-11T13:16:06;48.00;;;29.90;;
26822;SDS011;14852;51.910;8.878;2023-02-11T13:18:49;50.70;;;30.17;;
26822;SDS011;14852;51.910;8.878;2023-02-11T13:24:44;39.30;;;27.33;;
26822;SDS011;14852;51.910;8.878;2023-02-11T13:38:26;44.85;;;26.40;;
26822;SDS011;14852;51.910;8.878;2023-02-11T13:41:02;46.70;;;28.77;;
26822;SDS011;14852;51.910;8.878;2023-02-11T13:43:32;45.03;;;27.48;;
26822;SDS011;14852;51.910;8.878;2023-02-11T13:48:35;44.13;;;28.45;;
26822;SDS011;14852;51.910;8.878;2023-02-11T13:51:07;40.70;;;27.70;;
26822;SDS011;14852;51.910;8.878;2023-02-11T13:53:50;38.90;;;26.23;;
26822;SDS011;14852;51.910;8.878;2023-02-11T13:58:57;39.95;;;25.52;;
26822;SDS011;14852;51.910;8.878;2023-02-11T14:04:31;34.53;;;23.48;;
26822;SDS011;14852;51.910;8.878;2023-02-11T14:07:25;40.70;;;26.23;;
26822;SDS011;14852;51.910;8.878;2023-02-11T14:21:28;34.08;;;24.15;;
26822;SDS011;14852;51.910;8.878;2023-02-11T14:29:34;42.72;;;26.88;;
26822;SDS011;14852;51.910;8.878;2023-02-11T14:40:52;38.03;;;25.38;;
26822;SDS011;14852;51.910;8.878;2023-02-11T14:43:52;37.20;;;22.80;;
26822;SDS011;14852;51.910;8.878;2023-02-11T14:46:30;38.60;;;27.23;;
26822;SDS011;14852;51.910;8.878;2023-02-11T14:48:59;33.53;;;22.83;;
26822;SDS011;14852;51.910;8.878;2023-02-11T14:51:28;36.17;;;21.50;;
26822;SDS011;14852;51.910;8.878;2023-02-11T14:54:02;33.17;;;24.00;;
26822;SDS011;14852;51.910;8.878;2023-02-11T14:56:41;35.22;;;24.13;;
26822;SDS011;14852;51.910;8.878;2023-02-11T14:59:18;39.10;;;23.15;;
26822;SDS011;14852;51.910;8.878;2023-02-11T15:01:50;30.80;;;22.00;;
26822;SDS011;14852;51.910;8.878;2023-02-11T15:04:27;33.40;;;22.02;;
26822;SDS011;14852;51.910;8.878;2023-02-11T15:06:58;26.98;;;20.45;;
26822;SDS011;14852;51.910;8.878;2023-02-11T15:09:43;29.45;;;20.50;;
26822;SDS011;14852;51.910;8.878;2023-02-11T15:12:17;29.90;;;20.90;;
26822;SDS011;14852;51.910;8.878;2023-02-11T15:14:52;29.10;;;20.55;;
26822;SDS011;14852;51.910;8.878;2023-02-11T15:17:22;30.30;;;21.13;;
26822;SDS011;14852;51.910;8.878;2023-02-11T15:19:52;34.70;;;21.00;;
26822;SDS011;14852;51.910;8.878;2023-02-11T15:22:26;26.30;;;18.75;;
26822;SDS011;14852;51.910;8.878;2023-02-11T15:25:01;27.35;;;19.58;;
26822;SDS011;14852;51.910;8.878;2023-02-11T15:27:43;28.73;;;21.05;;
26822;SDS011;14852;51.910;8.878;2023-02-11T15:30:22;35.28;;;23.17;;
26822;SDS011;14852;51.910;8.878;2023-02-11T15:32:56;31.40;;;21.08;;
26822;SDS011;14852;51.910;8.878;2023-02-11T15:35:44;28.23;;;20.00;;
26822;SDS011;14852;51.910;8.878;2023-02-11T15:38:11;28.90;;;20.73;;
26822;SDS011;14852;51.910;8.878;2023-02-11T15:40:37;27.98;;;19.48;;
26822;SDS011;14852;51.910;8.878;2023-02-11T15:43:08;28.30;;;19.52;;
26822;SDS011;14852;51.910;8.878;2023-02-11T15:45:51;29.55;;;19.80;;
26822;SDS011;14852;51.910;8.878;2023-02-11T15:48:27;27.80;;;19.58;;
26822;SDS011;14852;51.910;8.878;2023-02-11T15:51:21;29.10;;;19.10;;
26822;SDS011;14852;51.910;8.878;2023-02-11T15:54:03;31.15;;;21.25;;
26822;SDS011;14852;51.910;8.878;2023-02-11T15:56:41;28.65;;;20.13;;
26822;SDS011;14852;51.910;8.878;2023-02-11T15:59:10;29.63;;;20.23;;
26822;SDS011;14852;51.910;8.878;2023-02-11T16:01:44;24.77;;;19.27;;
26822;SDS011;14852;51.910;8.878;2023-02-11T16:04:15;24.48;;;18.15;;
26822;SDS011;14852;51.910;8.878;2023-02-11T16:06:45;30.80;;;21.20;;
26822;SDS011;14852;51.910;8.878;2023-02-11T16:14:46;25.08;;;19.50;;
26822;SDS011;14852;51.910;8.878;2023-02-11T16:17:11;29.50;;;19.52;;
26822;SDS011;14852;51.910;8.878;2023-02-11T16:19:49;27.95;;;19.65;;
26822;SDS011;14852;51.910;8.878;2023-02-11T16:22:27;28.23;;;20.38;;
26822;SDS011;14852;51.910;8.878;2023-02-11T16:24:59;29.37;;;19.20;;
26822;SDS011;14852;51.910;8.878;2023-02-11T16:27:37;27.40;;;19.75;;
26822;SDS011;14852;51.910;8.878;2023-02-11T16:30:05;29.02;;;20.35;;
26822;SDS011;14852;51.910;8.878;2023-02-11T16:32:56;26.15;;;19.65;;
26822;SDS011;14852;51.910;8.878;2023-02-11T16:35:22;29.73;;;19.20;;
26822;SDS011;14852;51.910;8.878;2023-02-11T16:37:48;30.77;;;20.85;;
26822;SDS011;14852;51.910;8.878;2023-02-11T16:40:13;31.42;;;20.90;;
26822;SDS011;14852;51.910;8.878;2023-02-11T16:42:40;26.58;;;19.20;;
26822;SDS011;14852;51.910;8.878;2023-02-11T16:45:06;29.50;;;21.13;;
26822;SDS011;14852;51.910;8.878;2023-02-11T16:47:32;29.42;;;19.20;;
26822;SDS011;14852;51.910;8.878;2023-02-11T16:50:00;30.88;;;19.95;;
26822;SDS011;14852;51.910;8.878;2023-02-11T16:52:27;27.83;;;20.17;;
26822;SDS011;14852;51.910;8.878;2023-02-11T16:54:55;32.55;;;20.33;;
26822;SDS011;14852;51.910;8.878;2023-02-11T16:57:23;30.58;;;21.83;;
26822;SDS011;14852;51.910;8.878;2023-02-11T16:59:50;30.27;;;21.48;;
26822;SDS011;14852;51.910;8.878;2023-02-11T17:02:26;33.97;;;21.38;;
26822;SDS011;14852;51.910;8.878;2023-02-11T17:05:01;35.28;;;22.90;;
26822;SDS011;14852;51.910;8.878;2023-02-11T17:07:31;31.40;;;23.35;;
26822;SDS011;14852;51.910;8.878;2023-02-11T17:09:57;32.72;;;22.30;;
26822;SDS011;14852;51.910;8.878;2023-02-11T17:12:23;30.17;;;22.73;;
26822;SDS011;14852;51.910;8.878;2023-02-11T17:14:50;28.33;;;20.05;;
26822;SDS011;14852;51.910;8.878;2023-02-11T17:17:17;31.33;;;21.90;;
26822;SDS011;14852;51.910;8.878;2023-02-11T17:19:43;30.52;;;20.98;;